Flight Track Log - Related Links

Times and Time Zones

All times are in EDT time to prevent confusion due to time zone crossing. See the SWA1714 flight status page for this flight to view local times or setup timezone preferences in your user account.

Time Position Orientation Groundspeed Altitude Reporting Facility
EDT Latitude Longitude Course Direction KTS MPH feet Rate Location/Type
Fri 10:47:36 PM 45.5972 -122.6028 293° West 169 194 700  Level Seattle Center
Fri 10:48:55 PM 45.6242 -122.6936 293° West 226 260 3,100 2,000 Climbing Seattle Center
Fri 10:49:48 PM 45.6469 -122.7514 299° West 204 235 5,100 2,947 Climbing Seattle Center
Fri 10:50:49 PM 45.6125 -122.8361 240° Southwest 229 264 8,700 2,803 Climbing Seattle Center
Fri 10:51:50 PM 45.5628 -122.7825 143° Southeast 252 290 10,800 1,770 Climbing Seattle Center
Fri 10:52:51 PM 45.5231 -122.6633 115° Southeast 306 352 12,300 2,016 Climbing Seattle Center
Fri 10:53:52 PM 45.4817 -122.5356 115° Southeast 344 396 14,900 2,331 Climbing Seattle Center
Fri 10:54:52 PM 45.4292 -122.4108 121° Southeast 360 414 17,000 2,083 Climbing Seattle Center
Fri 10:55:53 PM 45.3672 -122.2872 125° Southeast 378 435 19,100 1,967 Climbing Seattle Center
Fri 10:56:54 PM 45.2853 -122.1814 138° Southeast 398 458 21,000 1,869 Climbing Seattle Center
Fri 10:57:55 PM 45.2044 -122.0733 137° Southeast 399 459 22,900 1,525 Climbing Seattle Center
Fri 10:58:56 PM 45.1142 -121.9606 139° Southeast 419 482 24,100 1,377 Climbing Seattle Center
Fri 10:59:57 PM 45.0275 -121.8461 137° Southeast 425 489 25,700 1,438 Climbing Seattle Center
Fri 11:00:57 PM 44.9356 -121.7264 137° Southeast 441 507 27,000 1,438 Climbing Seattle Center
Fri 11:01:58 PM 44.8408 -121.6072 138° Southeast 454 522 28,600 1,377 Climbing Seattle Center
Fri 11:02:59 PM 44.7481 -121.4889 138° Southeast 453 521 29,800 1,180 Climbing Seattle Center
Fri 11:04:00 PM 44.6514 -121.3683 138° Southeast 463 533 31,000 1,289 Climbing Seattle Center
Fri 11:05:00 PM 44.5414 -121.2283 138° Southeast 468 539 32,400 992 Climbing Seattle Center
Fri 11:06:01 PM 44.4428 -121.1058 138° Southeast 468 539 33,000 295 Climbing Seattle Center
Fri 11:07:02 PM 44.3403 -120.9783 138° Southeast 476 548 33,000 787 Level Seattle Center
Fri 11:08:03 PM 44.2414 -120.8567 139° Southeast 478 550 34,600 992 Climbing Seattle Center
Fri 11:09:03 PM 44.1447 -120.7389 139° Southeast 469 540 35,000 198 Climbing Seattle Center
Fri 11:10:04 PM 44.0458 -120.6181 139° Southeast 475 547 35,000  Level Seattle Center
Fri 11:11:05 PM 43.9450 -120.4950 139° Southeast 485 558 35,000  Level Seattle Center
Fri 11:12:06 PM 43.8461 -120.3764 139° Southeast 476 548 35,000  Level Seattle Center
Fri 11:13:06 PM 43.7497 -120.2569 138° Southeast 469 540 35,000  Level Seattle Center
Fri 11:14:07 PM 43.6536 -120.1400 139° Southeast 464 534 35,000  Level Seattle Center
Fri 11:15:08 PM 43.5567 -120.0253 139° Southeast 461 531 35,000  Level Seattle Center
Fri 11:16:08 PM 43.4606 -119.9111 139° Southeast 460 529 35,000  Level Seattle Center
Fri 11:17:09 PM 43.3631 -119.7944 139° Southeast 465 535 35,000  Level Seattle Center
Fri 11:18:10 PM 43.2608 -119.6775 140° Southeast 470 541 35,000  Level Seattle Center
Fri 11:19:11 PM 43.1617 -119.5583 139° Southeast 473 544 35,000  Level Seattle Center
Fri 11:20:11 PM 43.0600 -119.4403 140° Southeast 477 549 35,000  Level Seattle Center
Fri 11:21:12 PM 42.9558 -119.3197 140° Southeast 487 560 35,000  Level Seattle Center
Fri 11:22:13 PM 42.8383 -119.1828 139° Southeast 472 543 35,000  Level Seattle Center
Fri 11:23:13 PM 42.7583 -119.0881 139° Southeast 468 539 35,000  Level Seattle Center
Fri 11:24:14 PM 42.6394 -118.9519 140° Southeast 465 535 35,000  Level Seattle Center
Fri 11:25:15 PM 42.5394 -118.8386 140° Southeast 464 534 35,000 148 Level Seattle Center
Fri 11:26:16 PM 42.4392 -118.7242 140° Southeast 473 544 35,300 446 Climbing Seattle Center
Fri 11:27:16 PM 42.3394 -118.6097 140° Southeast 472 543 35,900 595 Climbing Seattle Center
Fri 11:28:17 PM 42.2411 -118.4994 140° Southeast 479 551 36,500 541 Climbing Seattle Center
Fri 11:29:18 PM 42.1436 -118.3892 140° Southeast 479 551 37,000 248 Climbing Seattle Center
Fri 11:30:18 PM 42.0300 -118.2633 141° Southeast 474 545 37,000  Level Seattle Center
Fri 11:31:19 PM 41.9328 -118.1533 140° Southeast 477 549 37,000  Level Seattle Center
Fri 11:32:20 PM 41.8381 -118.0472 140° Southeast 467 537 37,000  Level Seattle Center
Fri 11:33:21 PM 41.7300 -117.9153 138° Southeast 468 539 37,000  Level Seattle Center
Fri 11:34:31 PM 41.6225 -117.7831 137° Southeast 469 540 37,000  Level Salt Lake Center
Fri 11:35:32 PM 41.5317 -117.6672 136° Southeast 470 541 37,000  Level Salt Lake Center
Fri 11:36:33 PM 41.4242 -117.5331 137° Southeast 471 542 37,000  Level Salt Lake Center
Fri 11:37:34 PM 41.3319 -117.4203 137° Southeast 472 543 37,000  Level Salt Lake Center
Fri 11:38:36 PM 41.2236 -117.2861 137° Southeast 473 544 37,000  Level Salt Lake Center
Fri 11:39:37 PM 41.1314 -117.1728 137° Southeast 473 544 37,000  Level Salt Lake Center
Fri 11:40:38 PM 41.0389 -117.0589 137° Southeast 472 543 37,000  Level Salt Lake Center
Fri 11:41:39 PM 40.9308 -116.9272 137° Southeast 473 544 37,000  Level Salt Lake Center
Fri 11:42:40 PM 40.8375 -116.8131 137° Southeast 473 544 37,000  Level Salt Lake Center
Fri 11:43:41 PM 40.7436 -116.7003 138° Southeast 471 542 37,000  Level Salt Lake Center
Fri 11:44:42 PM 40.6347 -116.5692 138° Southeast 471 542 37,000  Level Salt Lake Center
Fri 11:45:43 PM 40.5422 -116.4572 137° Southeast 469 540 37,000  Level Salt Lake Center
Fri 11:46:45 PM 40.4522 -116.3522 138° Southeast 452 520 37,000  Level Salt Lake Center
Fri 11:47:46 PM 40.3500 -116.2297 138° Southeast 445 512 37,000  Level Salt Lake Center
Fri 11:48:47 PM 40.2606 -116.1250 138° Southeast 447 514 37,000  Level Salt Lake Center
Fri 11:49:48 PM 40.1719 -116.0194 138° Southeast 448 516 37,000  Level Salt Lake Center
Fri 11:50:49 PM 40.0694 -115.8978 138° Southeast 446 513 37,000  Level Salt Lake Center
Fri 11:51:50 PM 39.9803 -115.7933 138° Southeast 447 514 37,000  Level Salt Lake Center
Fri 11:52:51 PM 39.8883 -115.6892 139° Southeast 455 524 37,000  Level Salt Lake Center
Fri 11:53:52 PM 39.7836 -115.5694 139° Southeast 451 519 37,000  Level Salt Lake Center
Fri 11:54:53 PM 39.6914 -115.4697 140° Southeast 449 517 37,000  Level Salt Lake Center
Fri 11:55:54 PM 39.5906 -115.3786 145° Southeast 456 525 37,000  Level Salt Lake Center
Fri 11:56:55 PM 39.4756 -115.2747 145° Southeast 453 521 37,000  Level Salt Lake Center
Fri 11:57:56 PM 39.3742 -115.1869 146° Southeast 457 526 37,000  Level Salt Lake Center
Fri 11:58:57 PM 39.2742 -115.0983 146° Southeast 455 524 37,000  Level Salt Lake Center
Fri 11:59:58 PM 39.1572 -114.9950 146° Southeast 456 525 37,000  Level Salt Lake Center
Sat 12:00:59 AM 39.0678 -114.9131 145° Southeast 456 525 37,000  Level Salt Lake Center
Sat 12:02:00 AM 38.9425 -114.8019 145° Southeast 457 526 37,000  Level Salt Lake Center
Sat 12:03:01 AM 38.8378 -114.7086 145° Southeast 458 527 37,000  Level Salt Lake Center
Sat 12:04:02 AM 38.7319 -114.6169 146° Southeast 460 529 37,000  Level Salt Lake Center
Sat 12:05:04 AM 38.6269 -114.5247 146° Southeast 461 531 37,000  Level Salt Lake Center
Sat 12:06:04 AM 38.5206 -114.4342 146° Southeast 460 529 37,000  Level Salt Lake Center
Sat 12:07:06 AM 38.4147 -114.3428 146° Southeast 460 529 37,000  Level Salt Lake Center
Sat 12:08:19 AM 38.2894 -114.2325 145° Southeast 457 526 37,000  Level Salt Lake Center
Sat 12:09:20 AM 38.1825 -114.1431 147° Southeast 460 529 37,000  Level Salt Lake Center
Sat 12:10:21 AM 38.0781 -114.0536 146° Southeast 456 525 37,000  Level Salt Lake Center
Sat 12:11:22 AM 37.9722 -113.9639 146° Southeast 458 527 37,000  Level Salt Lake Center
Sat 12:12:23 AM 37.8469 -113.8556 146° Southeast 457 526 37,000  Level Salt Lake Center
Sat 12:13:24 AM 37.7417 -113.7667 146° Southeast 459 528 37,000  Level Salt Lake Center
Sat 12:14:25 AM 37.6394 -113.6808 146° Southeast 449 517 37,000  Level Salt Lake Center
Sat 12:15:26 AM 37.5372 -113.5961 147° Southeast 444 511 37,000  Level Salt Lake Center
Sat 12:16:27 AM 37.4322 -113.5078 146° Southeast 455 524 37,000  Level Salt Lake Center
Sat 12:16:58 AM 37.3689 -113.4525 145° Southeast 458 527 37,000  Level Los Angeles Center
Sat 12:17:59 AM 37.2856 -113.3822 146° Southeast 457 526 37,000  Level Los Angeles Center
Sat 12:18:30 AM 37.2244 -113.3319 147° Southeast 454 522 37,000  Level Salt Lake Center
Sat 12:19:31 AM 37.1250 -113.2500 147° Southeast 440 506 37,000  Level Salt Lake Center
Sat 12:20:02 AM 37.0644 -113.1992 146° Southeast 437 503 37,000  Level Los Angeles Center
Sat 12:21:03 AM 36.9806 -113.1300 147° Southeast 446 513 37,000  Level Los Angeles Center
Sat 12:22:05 AM 36.8542 -113.0236 146° Southeast 457 526 37,000  Level Los Angeles Center
Sat 12:23:18 AM 36.7508 -112.9408 147° Southeast 445 512 37,000  Level Los Angeles Center
Sat 12:24:20 AM 36.6086 -112.8247 147° Southeast 440 506 37,000 -634 Level Los Angeles Center
Sat 12:25:21 AM 36.5272 -112.7572 146° Southeast 439 505 35,700 -1,951 Descending Los Angeles Center
Sat 12:26:23 AM 36.4011 -112.6572 147° Southeast 449 517 33,000 -1,463 Descending Los Angeles Center
Sat 12:27:24 AM 36.2972 -112.5728 147° Southeast 449 517 32,700 -590 Descending Los Angeles Center
Sat 12:28:25 AM 36.1933 -112.4881 147° Southeast 448 516 31,800 -934 Descending Los Angeles Center
Sat 12:29:26 AM 36.0833 -112.4114 151° Southeast 462 532 30,800 -976 Descending Los Angeles Center
Sat 12:30:28 AM 35.9553 -112.4058 178° South 465 535 29,800 -878 Descending Los Angeles Center
Sat 12:31:29 AM 35.8314 -112.4122 182° South 460 529 29,000 -393 Descending Los Angeles Center
Sat 12:32:30 AM 35.7028 -112.4189 182° South 462 532 29,000  Level Los Angeles Center
Sat 12:33:44 AM 35.5508 -112.4269 182° South 455 524 29,000  Level Los Angeles Center
Sat 12:34:45 AM 35.3989 -112.4386 184° South 445 512 29,000  Level Los Angeles Center
Sat 12:35:48 AM 35.2797 -112.4131 170° South 442 509 29,000  Level Los Angeles Center
Sat 12:36:03 AM 35.2556 -112.4078 170° South 439 505 29,000  Level Albuquerque Center
Sat 12:37:04 AM 35.1364 -112.3811 170° South 436 502 29,000 -49 Level Albuquerque Center
Sat 12:38:05 AM 35.0186 -112.3561 170° South 431 496 28,900 -1,131 Descending Albuquerque Center
Sat 12:39:06 AM 34.9019 -112.3311 170° South 426 490 26,700 -1,426 Descending Albuquerque Center
Sat 12:40:07 AM 34.7864 -112.3064 170° South 424 488 26,000 -1,289 Descending Albuquerque Center
Sat 12:41:07 AM 34.6689 -112.2797 169° South 420 483 24,100 -2,033 Descending Albuquerque Center
Sat 12:42:08 AM 34.5572 -112.2553 170° South 411 473 21,900 -2,016 Descending Albuquerque Center
Sat 12:43:09 AM 34.4283 -112.2269 170° South 396 456 20,000 -1,770 Descending Albuquerque Center
Sat 12:44:10 AM 34.3269 -112.1997 167° South 380 437 18,300 -1,835 Descending Albuquerque Center
Sat 12:45:10 AM 34.2286 -112.1733 167° South 368 423 16,300 -1,983 Descending Albuquerque Center
Sat 12:46:11 AM 34.1317 -112.1481 168° South 363 418 14,300 -1,721 Descending Albuquerque Center
Sat 12:47:12 AM 34.0433 -112.1400 176° South 328 377 12,800 -1,131 Descending Albuquerque Center
Sat 12:48:13 AM 33.9608 -112.1497 186° South 307 353 12,000 -942 Descending Albuquerque Center
Sat 12:49:13 AM 33.8908 -112.1592 186° South 267 307 10,900 -1,388 Descending Albuquerque Center
Sat 12:50:14 AM 33.8197 -112.1733 189° South 259 298 9,200 -1,377 Descending Albuquerque Center
Sat 12:51:15 AM 33.7494 -112.1897 191° South 258 297 8,100 -942 Descending Albuquerque Center
Sat 12:52:15 AM 33.6803 -112.1956 184° South 252 290 7,300 -843 Descending Albuquerque Center
Sat 12:53:16 AM 33.6122 -112.1958 180° South 245 282 6,400 -787 Descending Albuquerque Center
Sat 12:54:17 AM 33.5364 -112.1942 179° South 230 265 5,700 -984 Descending Albuquerque Center
Sat 12:55:18 AM 33.4872 -112.1950 181° South 188 216 4,400 -1,289 Descending Albuquerque Center
Sat 12:56:18 AM 33.4517 -112.1581 139° Southeast 192 221 3,100 -992 Descending Albuquerque Center
Sat 12:57:19 AM 33.4406 -112.0967 102° East 192 221 2,400  Descending Albuquerque Center
Sat 12:58:20 AM 33.4400 -112.0269 91° East 201 231 3,100 1,388 Climbing Albuquerque Center
Sat 12:59:20 AM 33.4264 -111.9517 102° East 222 255 5,200 1,438 Climbing Albuquerque Center
Sat 01:00:21 AM 33.3922 -111.8839 121° Southeast 240 276 6,000 393 Climbing Albuquerque Center
Sat 01:01:22 AM 33.3603 -111.8225 122° Southeast 229 264 6,000  Level Albuquerque Center
Sat 01:02:22 AM 33.3747 -111.7617 74° East 220 253 6,000 -645 Level Albuquerque Center
Sat 01:03:23 AM 33.4114 -111.8086 313° West 200 230 4,700 -934 Descending Albuquerque Center
Sat 01:04:24 AM 33.4400 -111.8611 303° West 196 226 4,100 -1,140 Descending Albuquerque Center
Sat 01:05:24 AM 33.4422 -111.9064 273° West 164 189 2,400 -1,190 Descending Albuquerque Center
Sat 01:06:25 AM 33.4419 -111.9542 270° West 151 174 1,700 -492 Descending Albuquerque Center
Sat 01:07:26 AM 33.4414 -112.0106 269° West 148 170 1,400 -295 Descending Albuquerque Center

Login

Don't have an account? Register now (free) for customized features, flight alerts, and more!